createdAt,value
2022-11-09T00:01:05.462Z,99802.03
2022-11-09T00:03:32.770Z,99803.31
2022-11-09T00:06:00.965Z,99805.16
2022-11-09T00:08:29.020Z,99789.66
2022-11-09T00:11:02.970Z,99799.69
2022-11-09T00:13:30.230Z,99787.28
2022-11-09T00:16:02.277Z,99798.56
2022-11-09T00:18:30.336Z,99793.25
2022-11-09T00:20:57.995Z,99789.88
2022-11-09T00:23:25.240Z,99794.56
2022-11-09T00:25:52.674Z,99792.34
2022-11-09T00:28:19.861Z,99788.06
2022-11-09T00:30:48.012Z,99788.25
2022-11-09T00:33:16.791Z,99784.59
2022-11-09T00:35:44.549Z,99793.03
2022-11-09T00:38:11.690Z,99801.00
2022-11-09T00:40:39.157Z,99796.47
2022-11-09T00:43:06.301Z,99800.19
2022-11-09T00:45:33.791Z,99788.44
2022-11-09T00:48:01.091Z,99790.78
2022-11-09T00:50:29.901Z,99794.50
2022-11-09T00:52:57.188Z,99793.44
2022-11-09T00:55:24.776Z,99790.50
2022-11-09T00:57:53.372Z,99789.66
2022-11-09T01:00:23.993Z,99790.03
2022-11-09T01:02:51.445Z,99773.63
2022-11-09T01:05:19.900Z,99777.31
2022-11-09T01:07:49.445Z,99773.56
2022-11-09T01:10:17.086Z,99775.63
2022-11-09T01:12:46.599Z,99764.59
2022-11-09T01:15:15.553Z,99773.91
2022-11-09T01:17:42.751Z,99771.09
2022-11-09T01:20:10.919Z,99768.41
2022-11-09T01:22:38.060Z,99774.66
2022-11-09T01:25:06.035Z,99776.06
2022-11-09T01:27:33.479Z,99771.72
2022-11-09T01:30:01.178Z,99766.75
2022-11-09T01:32:31.925Z,99775.38
2022-11-09T01:34:59.452Z,99779.47
2022-11-09T01:37:26.674Z,99772.66
2022-11-09T01:39:54.149Z,99775.72
2022-11-09T01:42:25.592Z,99775.63
2022-11-09T01:45:14.792Z,99784.97
2022-11-09T01:47:42.060Z,99777.31
2022-11-09T01:50:11.994Z,99783.22
2022-11-09T01:52:44.920Z,99770.16
2022-11-09T01:55:16.940Z,99782.38
2022-11-09T01:57:59.088Z,99789.97
2022-11-09T02:00:26.539Z,99779.38
2022-11-09T02:02:58.719Z,99780.91
2022-11-09T02:05:31.212Z,99770.78
2022-11-09T02:08:02.025Z,99779.47
2022-11-09T02:10:35.839Z,99777.94
2022-11-09T02:13:03.890Z,99778.56
2022-11-09T02:15:40.238Z,99760.81
2022-11-09T02:18:12.149Z,99755.88
2022-11-09T02:20:57.890Z,99765.41
2022-11-09T02:23:27.103Z,99756.41
2022-11-09T02:26:00.433Z,99755.28
2022-11-09T02:28:28.964Z,99756.41
2022-11-09T02:30:58.043Z,99759.97
2022-11-09T02:33:26.218Z,99760.81
2022-11-09T02:35:54.882Z,99759.47
2022-11-09T02:38:22.492Z,99767.63
2022-11-09T02:40:52.649Z,99765.00
2022-11-09T02:43:20.652Z,99767.25
2022-11-09T02:45:48.831Z,99759.88
2022-11-09T02:48:16.582Z,99749.69
2022-11-09T02:50:44.139Z,99766.28
2022-11-09T02:53:11.379Z,99736.19
2022-11-09T02:55:42.700Z,99749.69
2022-11-09T02:58:09.824Z,99741.81
2022-11-09T03:00:37.946Z,99737.31
2022-11-09T03:03:06.009Z,99745.84
2022-11-09T03:05:33.616Z,99736.41
2022-11-09T03:08:02.772Z,99743.69
2022-11-09T03:10:33.920Z,99732.66
2022-11-09T03:13:01.808Z,99738.28
2022-11-09T03:15:29.407Z,99738.09
2022-11-09T03:17:56.811Z,99737.47
2022-11-09T03:20:25.234Z,99736.50
2022-11-09T03:22:52.458Z,99736.88
2022-11-09T03:25:20.243Z,99757.69
2022-11-09T03:27:48.258Z,99735.56
2022-11-09T03:30:19.061Z,99736.88
2022-11-09T03:32:50.388Z,99734.91
2022-11-09T03:35:18.396Z,99730.56
2022-11-09T03:37:45.767Z,99726.28
2022-11-09T03:40:13.678Z,99722.16
2022-11-09T03:42:48.787Z,99723.06
2022-11-09T03:45:16.830Z,99717.28
2022-11-09T03:47:45.264Z,99726.63
2022-11-09T03:50:14.585Z,99723.03
2022-11-09T03:52:45.636Z,99713.75
2022-11-09T03:55:13.829Z,99716.34
2022-11-09T03:57:41.320Z,99713.81
2022-11-09T04:00:09.410Z,99716.88
2022-11-09T04:02:39.105Z,99720.78
2022-11-09T04:05:07.330Z,99718.38
2022-11-09T04:07:34.552Z,99710.03
2022-11-09T04:10:02.036Z,99711.13
2022-11-09T04:12:29.154Z,99704.72
2022-11-09T04:14:56.609Z,99712.91
2022-11-09T04:17:24.081Z,99706.19
2022-11-09T04:19:51.482Z,99691.84
2022-11-09T04:22:18.648Z,99701.66
2022-11-09T04:24:46.058Z,99699.81
2022-11-09T04:27:13.182Z,99695.69
2022-11-09T04:29:40.598Z,99692.47
2022-11-09T04:32:08.084Z,99698.72
2022-11-09T04:34:35.506Z,99701.13
2022-11-09T04:37:02.732Z,99691.06
2022-11-09T04:39:30.245Z,99695.69
2022-11-09T04:41:57.379Z,99698.28
2022-11-09T04:44:24.880Z,99707.69
2022-11-09T04:46:52.004Z,99705.66
2022-11-09T04:49:19.549Z,99705.28
2022-11-09T04:51:46.846Z,99699.63
2022-11-09T04:54:14.424Z,99700.00
2022-11-09T04:56:41.611Z,99710.81
2022-11-09T04:59:09.067Z,99703.81
2022-11-09T05:01:36.281Z,99689.69
2022-11-09T05:04:03.830Z,99694.13
2022-11-09T05:06:34.019Z,99698.34
2022-11-09T05:09:04.891Z,99702.06
2022-11-09T05:11:33.359Z,99691.38
2022-11-09T05:14:01.637Z,99689.75
2022-11-09T05:16:30.799Z,99692.94
2022-11-09T05:18:58.346Z,99698.22
2022-11-09T05:21:25.507Z,99698.38
2022-11-09T05:23:59.033Z,99700.94
2022-11-09T05:26:30.769Z,99718.53
2022-11-09T05:28:59.301Z,99707.97
2022-11-09T05:31:27.782Z,99705.94
2022-11-09T05:33:55.418Z,99704.72
2022-11-09T05:36:23.399Z,99711.19
2022-11-09T05:38:51.159Z,99720.91
2022-11-09T05:41:18.382Z,99709.94
2022-11-09T05:43:46.189Z,99706.84
2022-11-09T05:46:14.916Z,99701.69
2022-11-09T05:48:43.297Z,99704.16
2022-11-09T05:51:12.840Z,99702.25
2022-11-09T05:53:45.179Z,99707.22
2022-11-09T05:56:14.757Z,99693.81
2022-11-09T05:58:42.786Z,99696.50
2022-11-09T06:01:17.034Z,99696.50
2022-11-09T06:03:44.644Z,99691.81
2022-11-09T06:06:16.747Z,99698.31
2022-11-09T06:08:44.365Z,99688.13
2022-11-09T06:11:16.804Z,99695.94
2022-11-09T06:13:49.419Z,99705.84
2022-11-09T06:16:16.573Z,99711.75
2022-11-09T06:18:43.998Z,99711.69
2022-11-09T06:21:11.214Z,99713.34
2022-11-09T06:23:38.657Z,99725.72
2022-11-09T06:26:09.722Z,99713.56
2022-11-09T06:28:38.424Z,99700.44
2022-11-09T06:31:07.825Z,99708.88
2022-11-09T06:33:36.270Z,99719.38
2022-11-09T06:36:04.445Z,99702.34
2022-11-09T06:38:32.005Z,99718.56
2022-11-09T06:41:00.378Z,99719.25
2022-11-09T06:43:28.464Z,99709.28
2022-11-09T06:45:56.506Z,99704.72
2022-11-09T06:48:24.640Z,99703.22
2022-11-09T06:50:51.802Z,99708.78
2022-11-09T06:53:19.644Z,99711.03
2022-11-09T06:55:50.534Z,99713.06
2022-11-09T06:58:19.718Z,99721.81
2022-11-09T07:00:47.172Z,99715.84
2022-11-09T07:03:16.233Z,99722.81
2022-11-09T07:05:44.165Z,99727.56
2022-11-09T07:08:12.236Z,99734.78
2022-11-09T07:10:39.768Z,99731.97
2022-11-09T07:13:07.704Z,99724.59
2022-11-09T07:15:36.185Z,99726.81
2022-11-09T07:18:05.445Z,99722.13
2022-11-09T07:20:32.904Z,99714.84
2022-11-09T07:23:00.399Z,99727.38
2022-11-09T07:25:27.650Z,99727.13
2022-11-09T07:27:55.102Z,99718.00
2022-11-09T07:30:22.262Z,99725.78
2022-11-09T07:35:38.059Z,99734.41
2022-11-09T07:38:05.877Z,99726.78
2022-11-09T07:40:33.558Z,99724.47
2022-11-09T07:43:01.998Z,99723.81
2022-11-09T07:45:30.441Z,99723.50
2022-11-09T07:47:59.139Z,99725.44
2022-11-09T07:50:27.580Z,99722.06
2022-11-09T07:52:56.603Z,99726.50
2022-11-09T07:55:24.905Z,99712.28
2022-11-09T07:58:04.868Z,99714.28
2022-11-09T08:00:33.792Z,99729.31
2022-11-09T08:03:01.609Z,99726.44
2022-11-09T08:05:30.107Z,99740.31
2022-11-09T08:08:00.236Z,99738.31
2022-11-09T08:10:29.152Z,99733.47
2022-11-09T08:12:58.606Z,99729.47
2022-11-09T08:15:26.712Z,99724.22
2022-11-09T08:17:54.849Z,99733.44
2022-11-09T08:20:21.997Z,99726.69
2022-11-09T08:22:49.565Z,99702.44
2022-11-09T08:25:16.793Z,99707.50
2022-11-09T08:27:44.313Z,99716.63
2022-11-09T08:30:17.583Z,99731.06
2022-11-09T08:32:45.808Z,99735.13
2022-11-09T08:35:17.938Z,99732.81
2022-11-09T08:37:47.020Z,99738.38
2022-11-09T08:40:17.075Z,99739.34
2022-11-09T08:42:45.093Z,99724.06
2022-11-09T08:45:12.495Z,99728.63
2022-11-09T08:47:40.279Z,99727.41
2022-11-09T08:50:09.239Z,99720.63
2022-11-09T08:52:37.266Z,99727.53
2022-11-09T08:55:05.184Z,99730.44
2022-11-09T08:57:32.739Z,99736.88
2022-11-09T08:59:59.902Z,99738.59
2022-11-09T09:02:27.389Z,99747.28
2022-11-09T09:04:54.622Z,99742.97
2022-11-09T09:07:22.285Z,99751.75
2022-11-09T09:09:49.492Z,99758.50
2022-11-09T09:12:17.235Z,99745.56
2022-11-09T09:14:44.389Z,99745.56
2022-11-09T09:17:11.867Z,99740.84
2022-11-09T09:19:40.135Z,99736.56
2022-11-09T09:22:07.618Z,99738.91
2022-11-09T09:24:35.459Z,99729.47
2022-11-09T09:27:03.029Z,99734.13
2022-11-09T09:29:30.196Z,99722.38
2022-11-09T09:31:57.695Z,99719.94
2022-11-09T09:34:24.813Z,99718.88
2022-11-09T09:36:53.760Z,99722.47
2022-11-09T09:39:21.561Z,99712.28
2022-11-09T09:41:58.369Z,99724.69
2022-11-09T09:44:51.615Z,99718.00
2022-11-09T09:47:37.282Z,99734.63
2022-11-09T09:50:13.266Z,99752.34
2022-11-09T09:53:04.741Z,99742.56
2022-11-09T09:55:40.435Z,99747.69
2022-11-09T09:58:28.954Z,99739.22
2022-11-09T10:01:29.900Z,99734.84
2022-11-09T10:03:57.378Z,99747.31
2022-11-09T10:06:40.534Z,99757.88
2022-11-09T10:09:28.337Z,99754.34
2022-11-09T10:12:20.217Z,99758.59
2022-11-09T10:15:02.274Z,99755.28
2022-11-09T10:17:40.147Z,99749.88
2022-11-09T10:20:15.869Z,99742.75
2022-11-09T10:22:55.475Z,99723.78
2022-11-09T10:25:43.952Z,99715.06
2022-11-09T10:28:17.465Z,99712.56
2022-11-09T10:30:45.287Z,99704.22
2022-11-09T10:33:20.887Z,99707.22
2022-11-09T10:36:05.252Z,99709.31
2022-11-09T10:38:45.241Z,99703.94
2022-11-09T10:41:40.403Z,99703.34
2022-11-09T10:44:25.907Z,99711.03
2022-11-09T10:47:22.647Z,99707.56
2022-11-09T10:50:37.586Z,99719.41
2022-11-09T10:53:25.711Z,99710.00
2022-11-09T10:56:21.120Z,99718.41
2022-11-09T10:59:29.576Z,99726.44
2022-11-09T11:02:42.950Z,99724.97
2022-11-09T11:05:31.265Z,99727.50
2022-11-09T11:08:39.917Z,99721.00
2022-11-09T11:11:34.445Z,99723.41
2022-11-09T11:14:43.220Z,99723.94
2022-11-09T11:17:36.224Z,99709.78
2022-11-09T11:20:36.608Z,99713.28
2022-11-09T11:23:25.299Z,99729.44
2022-11-09T11:26:19.891Z,99736.84
2022-11-09T11:29:33.497Z,99729.09
2022-11-09T11:32:20.520Z,99717.31
2022-11-09T11:35:15.012Z,99709.13
2022-11-09T11:38:18.822Z,99710.28
2022-11-09T11:41:31.110Z,99709.44
2022-11-09T11:44:16.941Z,99721.06
2022-11-09T11:47:29.727Z,99707.94
2022-11-09T11:50:26.035Z,99725.75
2022-11-09T11:53:28.762Z,99723.91
2022-11-09T11:56:38.121Z,99726.75
2022-11-09T11:59:37.176Z,99725.75
2022-11-09T12:02:41.407Z,99719.69
2022-11-09T12:05:55.160Z,99731.19
2022-11-09T12:09:00.535Z,99735.41
2022-11-09T12:12:17.955Z,99740.78
2022-11-09T12:15:25.535Z,99737.09
2022-11-09T12:18:29.273Z,99728.50
2022-11-09T12:21:23.865Z,99727.78
2022-11-09T12:24:25.366Z,99745.69
2022-11-09T12:27:41.457Z,99738.91
2022-11-09T12:30:59.308Z,99747.00
2022-11-09T12:34:03.198Z,99742.09
2022-11-09T12:36:54.598Z,99745.28
2022-11-09T12:39:50.819Z,99732.47
2022-11-09T12:42:46.211Z,99741.25
2022-11-09T12:45:37.977Z,99733.50
2022-11-09T12:48:26.829Z,99733.16
2022-11-09T12:51:12.510Z,99725.41
2022-11-09T12:54:00.083Z,99734.19
2022-11-09T12:56:54.602Z,99726.56
2022-11-09T12:59:54.987Z,99728.09
2022-11-09T13:02:59.093Z,99743.22
2022-11-09T13:05:47.684Z,99731.94
2022-11-09T13:08:33.700Z,99720.66
2022-11-09T13:11:51.827Z,99728.25
2022-11-09T13:14:38.801Z,99725.56
2022-11-09T13:17:24.785Z,99730.75
2022-11-09T13:24:00.079Z,99744.56
2022-11-09T13:26:47.079Z,99748.25
2022-11-09T13:29:41.875Z,99744.75
2022-11-09T13:32:29.666Z,99737.66
2022-11-09T13:35:40.027Z,99756.00
2022-11-09T13:38:28.854Z,99745.69
2022-11-09T13:41:35.251Z,99758.31
2022-11-09T13:44:20.871Z,99770.44
2022-11-09T13:47:21.919Z,99764.69
2022-11-09T13:50:28.756Z,99772.19
2022-11-09T13:53:37.006Z,99787.94
2022-11-09T13:56:28.427Z,99792.97
2022-11-09T13:59:21.818Z,99768.22
2022-11-09T14:02:25.278Z,99765.53
2022-11-09T14:05:32.981Z,99770.91
2022-11-09T14:08:23.989Z,99773.59
2022-11-09T14:11:35.810Z,99781.78
2022-11-09T14:14:56.275Z,99769.53
2022-11-09T14:18:10.896Z,99771.25
2022-11-09T14:21:26.585Z,99784.00
2022-11-09T14:24:18.925Z,99776.53
2022-11-09T14:27:10.416Z,99776.44
2022-11-09T14:29:57.472Z,99778.09
2022-11-09T14:32:49.504Z,99773.91
2022-11-09T14:35:36.629Z,99790.94
2022-11-09T14:38:26.320Z,99777.75
2022-11-09T14:41:22.851Z,99797.13
2022-11-09T14:44:28.592Z,99789.75
2022-11-09T14:47:21.695Z,99792.50
2022-11-09T14:50:15.725Z,99785.56
2022-11-09T14:53:02.363Z,99785.59
2022-11-09T14:55:52.635Z,99790.53
2022-11-09T14:58:42.514Z,99785.06
2022-11-09T15:01:28.812Z,99783.56
2022-11-09T15:04:20.106Z,99801.88
2022-11-09T15:07:06.758Z,99798.22
2022-11-09T15:10:01.807Z,99793.91
2022-11-09T15:12:50.186Z,99790.44
2022-11-09T15:15:36.208Z,99790.66
2022-11-09T15:18:33.464Z,99794.09
2022-11-09T15:21:32.977Z,99799.88
2022-11-09T15:24:19.911Z,99793.53
2022-11-09T15:27:29.816Z,99808.00
2022-11-09T15:30:33.129Z,99808.91
2022-11-09T15:33:21.078Z,99795.75
2022-11-09T15:36:27.422Z,99792.91
2022-11-09T15:39:18.968Z,99799.78
2022-11-09T15:42:04.658Z,99788.38
2022-11-09T15:44:56.474Z,99781.03
2022-11-09T15:47:53.796Z,99781.69
2022-11-09T15:50:40.427Z,99789.97
2022-11-09T15:53:26.868Z,99785.38
2022-11-09T15:56:24.409Z,99781.75
2022-11-09T15:59:23.264Z,99782.69
2022-11-09T16:02:11.024Z,99786.59
2022-11-09T16:04:56.960Z,99783.69
2022-11-09T16:07:53.767Z,99787.69
2022-11-09T16:10:40.851Z,99775.56
2022-11-09T16:13:26.817Z,99783.38
2022-11-09T16:16:15.561Z,99774.78
2022-11-09T16:19:01.910Z,99787.31
2022-11-09T16:21:48.684Z,99776.28
2022-11-09T16:24:35.110Z,99792.97
2022-11-09T16:27:48.502Z,99794.81
2022-11-09T16:30:27.970Z,99785.94
2022-11-09T16:33:14.098Z,99794.59
2022-11-09T16:36:02.545Z,99796.88
2022-11-09T16:38:51.701Z,99797.94
2022-11-09T16:41:41.967Z,99791.66
2022-11-09T16:44:34.054Z,99796.34
2022-11-09T16:47:21.137Z,99801.25
2022-11-09T16:50:07.502Z,99786.75
2022-11-09T16:52:53.163Z,99796.19
2022-11-09T16:55:38.741Z,99776.16
2022-11-09T16:58:24.792Z,99777.78
2022-11-09T17:01:13.007Z,99783.31
2022-11-09T17:03:59.995Z,99777.25
2022-11-09T17:06:45.885Z,99786.06
2022-11-09T17:09:35.438Z,99780.84
2022-11-09T17:12:21.320Z,99786.06
2022-11-09T17:15:08.027Z,99783.53
2022-11-09T17:17:53.388Z,99775.63
2022-11-09T17:20:57.342Z,99782.59
2022-11-09T17:23:43.505Z,99793.44
2022-11-09T17:26:31.980Z,99788.81
2022-11-09T17:29:17.522Z,99788.81
2022-11-09T17:32:10.021Z,99784.31
2022-11-09T17:34:55.877Z,99796.19
2022-11-09T17:37:42.444Z,99803.88
2022-11-09T17:40:28.114Z,99797.59
2022-11-09T17:43:13.969Z,99787.44
2022-11-09T17:46:08.052Z,99783.81
2022-11-09T17:48:54.077Z,99787.16
2022-11-09T17:51:40.016Z,99801.00
2022-11-09T17:54:33.957Z,99802.88
2022-11-09T17:57:22.204Z,99806.41
2022-11-09T18:00:10.536Z,99815.94
2022-11-09T18:02:56.525Z,99813.63
2022-11-09T18:05:43.599Z,99799.94
2022-11-09T18:08:29.601Z,99803.19
2022-11-09T18:11:16.930Z,99808.34
2022-11-09T18:14:03.551Z,99809.22
2022-11-09T18:16:49.496Z,99815.25
2022-11-09T18:19:34.992Z,99813.09
2022-11-09T18:22:20.971Z,99812.41
2022-11-09T18:25:07.027Z,99810.03
2022-11-09T18:27:52.769Z,99817.09
2022-11-09T18:30:41.792Z,99814.94
2022-11-09T18:33:28.085Z,99804.94
2022-11-09T18:36:15.914Z,99799.56
2022-11-09T18:39:03.295Z,99826.91
2022-11-09T18:41:48.724Z,99822.66
2022-11-09T18:44:34.710Z,99823.75
2022-11-09T18:47:20.738Z,99833.81
2022-11-09T18:50:07.050Z,99815.25
2022-11-09T18:52:52.661Z,99820.63
2022-11-09T18:55:38.610Z,99841.06
2022-11-09T18:58:24.250Z,99816.16
2022-11-09T19:01:10.216Z,99828.56
2022-11-09T19:03:59.298Z,99838.56
2022-11-09T19:06:46.734Z,99827.16
2022-11-09T19:09:35.985Z,99827.59
2022-11-09T19:12:22.012Z,99844.84
2022-11-09T19:15:08.213Z,99844.09
2022-11-09T19:17:54.533Z,99854.22
2022-11-09T19:20:40.710Z,99854.84
2022-11-09T19:23:31.290Z,99863.16
2022-11-09T19:26:21.287Z,99844.88
2022-11-09T19:29:08.794Z,99858.53
2022-11-09T19:31:55.144Z,99848.84
2022-11-09T19:34:42.820Z,99849.47
2022-11-09T19:37:29.308Z,99849.91
2022-11-09T19:40:15.827Z,99852.84
2022-11-09T19:43:01.381Z,99846.84
2022-11-09T19:45:47.400Z,99848.78
2022-11-09T19:48:35.103Z,99849.00
2022-11-09T19:51:20.963Z,99851.75
2022-11-09T19:54:07.483Z,99848.41
2022-11-09T19:56:53.918Z,99850.75
2022-11-09T19:59:39.363Z,99848.59
2022-11-09T20:02:25.466Z,99845.59
2022-11-09T20:05:11.453Z,99846.91
2022-11-09T20:07:57.951Z,99849.72
2022-11-09T20:10:43.443Z,99852.66
2022-11-09T20:13:29.646Z,99853.16
2022-11-09T20:16:15.581Z,99866.44
2022-11-09T20:19:04.040Z,99857.28
2022-11-09T20:21:49.812Z,99854.38
2022-11-09T20:24:35.820Z,99849.19
2022-11-09T20:27:22.592Z,99856.72
2022-11-09T20:30:09.001Z,99850.50
2022-11-09T20:32:54.546Z,99846.59
2022-11-09T20:35:45.688Z,99850.88
2022-11-09T20:38:32.493Z,99849.78
2022-11-09T20:41:21.676Z,99861.22
2022-11-09T20:44:08.497Z,99848.59
2022-11-09T20:46:54.593Z,99855.09
2022-11-09T20:49:43.413Z,99860.34
2022-11-09T20:52:29.607Z,99863.09
2022-11-09T20:55:19.129Z,99877.47
2022-11-09T20:58:06.017Z,99871.47
2022-11-09T21:01:13.572Z,99879.69
2022-11-09T21:03:59.614Z,99883.31
2022-11-09T21:06:45.380Z,99858.25
2022-11-09T21:09:31.573Z,99854.13
2022-11-09T21:12:24.901Z,99852.88
2022-11-09T21:15:14.113Z,99849.66
2022-11-09T21:18:00.186Z,99852.41
2022-11-09T21:20:46.398Z,99850.94
2022-11-09T21:23:50.897Z,99839.25
2022-11-09T21:26:56.217Z,99843.09
2022-11-09T21:29:50.626Z,99848.50
2022-11-09T21:32:36.534Z,99847.53
2022-11-09T21:35:22.041Z,99842.75
2022-11-09T21:38:08.558Z,99842.75
2022-11-09T21:40:54.005Z,99835.28
2022-11-09T21:43:40.091Z,99823.25
2022-11-09T21:46:25.597Z,99835.63
2022-11-09T21:49:13.262Z,99831.72
2022-11-09T21:51:58.969Z,99837.19
2022-11-09T21:54:44.770Z,99851.16
2022-11-09T21:57:30.272Z,99875.66
2022-11-09T22:00:17.041Z,99856.09
2022-11-09T22:03:03.306Z,99860.88
2022-11-09T22:05:49.243Z,99854.16
2022-11-09T22:08:35.649Z,99852.22
2022-11-09T22:11:42.272Z,99843.94
2022-11-09T22:14:46.458Z,99830.88
2022-11-09T22:17:32.193Z,99836.28
2022-11-09T22:20:36.512Z,99841.63
2022-11-09T22:23:22.561Z,99853.47
2022-11-09T22:26:09.085Z,99859.09
2022-11-09T22:28:56.394Z,99850.06
2022-11-09T22:31:41.855Z,99848.81
2022-11-09T22:34:28.068Z,99866.44
2022-11-09T22:37:14.113Z,99861.06
2022-11-09T22:39:59.870Z,99877.75
2022-11-09T22:42:45.433Z,99873.53
2022-11-09T22:45:33.809Z,99875.25
2022-11-09T22:48:19.412Z,99875.06
2022-11-09T22:51:06.252Z,99877.19
2022-11-09T22:53:52.312Z,99876.84
2022-11-09T22:56:38.335Z,99875.13
2022-11-09T22:59:24.006Z,99871.22
2022-11-09T23:02:10.028Z,99868.25
2022-11-09T23:04:55.695Z,99867.00
2022-11-09T23:07:42.475Z,99871.53
2022-11-09T23:10:27.881Z,99870.84
2022-11-09T23:13:13.911Z,99868.47
2022-11-09T23:16:05.141Z,99872.97
2022-11-09T23:18:53.904Z,99878.44
2022-11-09T23:21:39.808Z,99871.53
2022-11-09T23:24:44.675Z,99873.84
2022-11-09T23:27:30.569Z,99865.00
2022-11-09T23:30:16.790Z,99871.75
2022-11-09T23:33:02.925Z,99880.38
2022-11-09T23:35:48.973Z,99882.00
2022-11-09T23:38:37.051Z,99876.94
2022-11-09T23:41:22.952Z,99881.75
2022-11-09T23:44:08.609Z,99877.06
2022-11-09T23:46:54.680Z,99862.06
2022-11-09T23:49:40.437Z,99870.78
2022-11-09T23:52:26.399Z,99872.78
2022-11-09T23:55:12.212Z,99867.19
2022-11-09T23:58:01.283Z,99858.19
